sensor_id;sensor_type;location;lat;lon;timestamp;temperature;humidity
35970;DHT22;22448;51.298;6.430;2024-03-22T00:01:46;10.40;99.90
35970;DHT22;22448;51.298;6.430;2024-03-22T00:04:12;10.40;99.90
35970;DHT22;22448;51.298;6.430;2024-03-22T00:06:40;10.40;99.90
35970;DHT22;22448;51.298;6.430;2024-03-22T00:09:07;10.40;99.90
35970;DHT22;22448;51.298;6.430;2024-03-22T00:11:33;10.40;99.90
35970;DHT22;22448;51.298;6.430;2024-03-22T00:13:59;10.40;99.90
35970;DHT22;22448;51.298;6.430;2024-03-22T00:16:25;10.50;99.90
35970;DHT22;22448;51.298;6.430;2024-03-22T00:18:52;10.50;99.90
35970;DHT22;22448;51.298;6.430;2024-03-22T00:21:18;10.50;99.90
35970;DHT22;22448;51.298;6.430;2024-03-22T00:23:45;10.50;99.90
35970;DHT22;22448;51.298;6.430;2024-03-22T00:26:11;10.50;99.90
35970;DHT22;22448;51.298;6.430;2024-03-22T00:28:37;10.50;99.90
35970;DHT22;22448;51.298;6.430;2024-03-22T00:31:04;10.50;99.90
35970;DHT22;22448;51.298;6.430;2024-03-22T00:33:30;10.50;99.90
35970;DHT22;22448;51.298;6.430;2024-03-22T00:35:57;10.50;99.90
35970;DHT22;22448;51.298;6.430;2024-03-22T00:38:24;10.50;99.90
35970;DHT22;22448;51.298;6.430;2024-03-22T00:40:50;10.60;99.90
35970;DHT22;22448;51.298;6.430;2024-03-22T00:43:16;10.60;99.90
35970;DHT22;22448;51.298;6.430;2024-03-22T00:45:42;10.60;99.90
35970;DHT22;22448;51.298;6.430;2024-03-22T00:48:08;10.60;99.90
35970;DHT22;22448;51.298;6.430;2024-03-22T00:50:35;10.60;99.90
35970;DHT22;22448;51.298;6.430;2024-03-22T00:53:01;10.60;99.90
35970;DHT22;22448;51.298;6.430;2024-03-22T00:55:29;10.50;99.90
35970;DHT22;22448;51.298;6.430;2024-03-22T00:57:55;10.50;99.90
35970;DHT22;22448;51.298;6.430;2024-03-22T01:00:21;10.50;99.90
35970;DHT22;22448;51.298;6.430;2024-03-22T01:02:47;10.50;99.90
35970;DHT22;22448;51.298;6.430;2024-03-22T01:05:15;10.50;99.90
35970;DHT22;22448;51.298;6.430;2024-03-22T01:07:41;10.50;99.90
35970;DHT22;22448;51.298;6.430;2024-03-22T01:10:08;10.50;99.90
35970;DHT22;22448;51.298;6.430;2024-03-22T01:12:34;10.50;99.90
35970;DHT22;22448;51.298;6.430;2024-03-22T01:15:01;10.50;99.90
35970;DHT22;22448;51.298;6.430;2024-03-22T01:17:27;10.50;99.90
35970;DHT22;22448;51.298;6.430;2024-03-22T01:19:53;10.50;99.90
35970;DHT22;22448;51.298;6.430;2024-03-22T01:22:20;10.50;99.90
35970;DHT22;22448;51.298;6.430;2024-03-22T01:24:46;10.50;99.90
35970;DHT22;22448;51.298;6.430;2024-03-22T01:27:12;10.50;99.90
35970;DHT22;22448;51.298;6.430;2024-03-22T01:29:39;10.50;99.90
35970;DHT22;22448;51.298;6.430;2024-03-22T01:32:05;10.60;99.90
35970;DHT22;22448;51.298;6.430;2024-03-22T01:34:31;10.60;99.90
35970;DHT22;22448;51.298;6.430;2024-03-22T01:36:58;10.50;99.90
35970;DHT22;22448;51.298;6.430;2024-03-22T01:39:24;10.60;99.90
35970;DHT22;22448;51.298;6.430;2024-03-22T01:41:50;10.60;99.90
35970;DHT22;22448;51.298;6.430;2024-03-22T01:44:17;10.60;99.90
35970;DHT22;22448;51.298;6.430;2024-03-22T01:46:44;10.60;99.90
35970;DHT22;22448;51.298;6.430;2024-03-22T01:49:12;10.60;99.90
35970;DHT22;22448;51.298;6.430;2024-03-22T01:51:39;10.60;99.90
35970;DHT22;22448;51.298;6.430;2024-03-22T01:54:08;10.70;99.90
35970;DHT22;22448;51.298;6.430;2024-03-22T01:56:38;10.70;99.90
35970;DHT22;22448;51.298;6.430;2024-03-22T01:59:06;10.70;99.90
35970;DHT22;22448;51.298;6.430;2024-03-22T02:01:33;10.70;99.90
35970;DHT22;22448;51.298;6.430;2024-03-22T02:04:00;10.70;99.90
35970;DHT22;22448;51.298;6.430;2024-03-22T02:06:26;10.80;99.90
35970;DHT22;22448;51.298;6.430;2024-03-22T02:08:53;10.80;99.90
35970;DHT22;22448;51.298;6.430;2024-03-22T02:11:19;10.80;99.90
35970;DHT22;22448;51.298;6.430;2024-03-22T02:13:46;10.80;99.90
35970;DHT22;22448;51.298;6.430;2024-03-22T02:16:12;10.80;99.90
35970;DHT22;22448;51.298;6.430;2024-03-22T02:18:38;10.80;99.90
35970;DHT22;22448;51.298;6.430;2024-03-22T02:21:04;10.90;99.90
35970;DHT22;22448;51.298;6.430;2024-03-22T02:23:38;10.90;99.90
35970;DHT22;22448;51.298;6.430;2024-03-22T02:26:05;10.90;99.90
35970;DHT22;22448;51.298;6.430;2024-03-22T02:28:32;11.00;99.90
35970;DHT22;22448;51.298;6.430;2024-03-22T02:30:59;11.00;99.90
35970;DHT22;22448;51.298;6.430;2024-03-22T02:33:25;11.00;99.90
35970;DHT22;22448;51.298;6.430;2024-03-22T02:35:51;11.00;99.90
35970;DHT22;22448;51.298;6.430;2024-03-22T02:38:18;11.00;99.90
35970;DHT22;22448;51.298;6.430;2024-03-22T02:40:46;11.00;99.90
35970;DHT22;22448;51.298;6.430;2024-03-22T02:43:12;11.00;99.90
35970;DHT22;22448;51.298;6.430;2024-03-22T02:45:39;11.00;99.90
35970;DHT22;22448;51.298;6.430;2024-03-22T02:48:06;11.00;99.90
35970;DHT22;22448;51.298;6.430;2024-03-22T02:50:34;11.00;99.90
35970;DHT22;22448;51.298;6.430;2024-03-22T02:53:00;11.00;99.90
35970;DHT22;22448;51.298;6.430;2024-03-22T02:55:27;11.00;99.90
35970;DHT22;22448;51.298;6.430;2024-03-22T02:57:53;11.00;99.90
35970;DHT22;22448;51.298;6.430;2024-03-22T03:00:20;11.00;99.90
35970;DHT22;22448;51.298;6.430;2024-03-22T03:02:46;11.00;99.90
35970;DHT22;22448;51.298;6.430;2024-03-22T03:05:12;11.00;99.90
35970;DHT22;22448;51.298;6.430;2024-03-22T03:07:38;11.00;99.90
35970;DHT22;22448;51.298;6.430;2024-03-22T03:10:05;10.90;99.90
35970;DHT22;22448;51.298;6.430;2024-03-22T03:12:32;10.90;99.90
35970;DHT22;22448;51.298;6.430;2024-03-22T03:14:58;10.80;99.90
35970;DHT22;22448;51.298;6.430;2024-03-22T03:17:25;10.80;99.90
35970;DHT22;22448;51.298;6.430;2024-03-22T03:19:51;10.80;99.90
35970;DHT22;22448;51.298;6.430;2024-03-22T03:22:17;10.80;99.90
35970;DHT22;22448;51.298;6.430;2024-03-22T03:24:44;10.70;99.90
35970;DHT22;22448;51.298;6.430;2024-03-22T03:27:10;10.70;99.90
35970;DHT22;22448;51.298;6.430;2024-03-22T03:29:36;10.70;99.90
35970;DHT22;22448;51.298;6.430;2024-03-22T03:32:03;10.70;99.90
35970;DHT22;22448;51.298;6.430;2024-03-22T03:34:29;10.70;99.90
35970;DHT22;22448;51.298;6.430;2024-03-22T03:36:55;10.70;99.90
35970;DHT22;22448;51.298;6.430;2024-03-22T03:39:21;10.70;99.90
35970;DHT22;22448;51.298;6.430;2024-03-22T03:41:48;10.70;99.90
35970;DHT22;22448;51.298;6.430;2024-03-22T03:44:13;10.70;99.90
35970;DHT22;22448;51.298;6.430;2024-03-22T03:46:40;10.70;99.90
35970;DHT22;22448;51.298;6.430;2024-03-22T03:49:06;10.70;99.90
35970;DHT22;22448;51.298;6.430;2024-03-22T03:51:32;10.60;99.90
35970;DHT22;22448;51.298;6.430;2024-03-22T03:53:58;10.60;99.90
35970;DHT22;22448;51.298;6.430;2024-03-22T03:56:25;10.60;99.90
35970;DHT22;22448;51.298;6.430;2024-03-22T03:58:51;10.60;99.90
35970;DHT22;22448;51.298;6.430;2024-03-22T04:01:17;10.50;99.90
35970;DHT22;22448;51.298;6.430;2024-03-22T04:03:44;10.60;99.90
35970;DHT22;22448;51.298;6.430;2024-03-22T04:06:10;10.60;99.90
35970;DHT22;22448;51.298;6.430;2024-03-22T04:08:36;10.60;99.90
35970;DHT22;22448;51.298;6.430;2024-03-22T04:11:02;10.60;99.90
35970;DHT22;22448;51.298;6.430;2024-03-22T04:13:29;10.70;99.90
35970;DHT22;22448;51.298;6.430;2024-03-22T04:15:59;10.70;99.90
35970;DHT22;22448;51.298;6.430;2024-03-22T04:18:25;10.70;99.90
35970;DHT22;22448;51.298;6.430;2024-03-22T04:20:56;10.70;99.90
35970;DHT22;22448;51.298;6.430;2024-03-22T04:23:22;10.80;99.90
35970;DHT22;22448;51.298;6.430;2024-03-22T04:25:56;10.80;99.90
35970;DHT22;22448;51.298;6.430;2024-03-22T04:28:23;10.90;99.90
35970;DHT22;22448;51.298;6.430;2024-03-22T04:30:58;10.90;99.90
35970;DHT22;22448;51.298;6.430;2024-03-22T04:33:26;10.90;99.90
35970;DHT22;22448;51.298;6.430;2024-03-22T04:35:53;10.90;99.90
35970;DHT22;22448;51.298;6.430;2024-03-22T04:38:19;10.90;99.90
35970;DHT22;22448;51.298;6.430;2024-03-22T04:40:45;11.00;99.90
35970;DHT22;22448;51.298;6.430;2024-03-22T04:43:12;10.90;99.90
35970;DHT22;22448;51.298;6.430;2024-03-22T04:45:38;10.90;99.90
35970;DHT22;22448;51.298;6.430;2024-03-22T04:48:04;11.00;99.90
35970;DHT22;22448;51.298;6.430;2024-03-22T04:50:31;11.00;99.90
35970;DHT22;22448;51.298;6.430;2024-03-22T04:52:58;11.00;99.90
35970;DHT22;22448;51.298;6.430;2024-03-22T04:55:24;11.00;99.90
35970;DHT22;22448;51.298;6.430;2024-03-22T04:57:51;11.00;99.90
35970;DHT22;22448;51.298;6.430;2024-03-22T05:00:18;11.00;99.90
35970;DHT22;22448;51.298;6.430;2024-03-22T05:02:45;11.00;99.90
35970;DHT22;22448;51.298;6.430;2024-03-22T05:05:12;11.00;99.90
35970;DHT22;22448;51.298;6.430;2024-03-22T05:07:38;11.10;99.90
35970;DHT22;22448;51.298;6.430;2024-03-22T05:10:04;11.00;99.90
35970;DHT22;22448;51.298;6.430;2024-03-22T05:12:31;11.00;99.90
35970;DHT22;22448;51.298;6.430;2024-03-22T05:14:57;11.00;99.90
35970;DHT22;22448;51.298;6.430;2024-03-22T05:17:23;11.00;99.90
35970;DHT22;22448;51.298;6.430;2024-03-22T05:19:49;11.00;99.90
35970;DHT22;22448;51.298;6.430;2024-03-22T05:22:15;10.90;99.90
35970;DHT22;22448;51.298;6.430;2024-03-22T05:24:41;10.90;99.90
35970;DHT22;22448;51.298;6.430;2024-03-22T05:27:08;10.90;99.90
35970;DHT22;22448;51.298;6.430;2024-03-22T05:29:34;10.90;99.90
35970;DHT22;22448;51.298;6.430;2024-03-22T05:32:00;10.90;99.90
35970;DHT22;22448;51.298;6.430;2024-03-22T05:34:29;10.80;99.90
35970;DHT22;22448;51.298;6.430;2024-03-22T05:36:56;10.80;99.90
35970;DHT22;22448;51.298;6.430;2024-03-22T05:39:22;10.80;99.90
35970;DHT22;22448;51.298;6.430;2024-03-22T05:41:48;10.90;99.90
35970;DHT22;22448;51.298;6.430;2024-03-22T05:44:14;10.80;99.90
35970;DHT22;22448;51.298;6.430;2024-03-22T05:46:40;10.80;99.90
35970;DHT22;22448;51.298;6.430;2024-03-22T05:49:06;10.80;99.90
35970;DHT22;22448;51.298;6.430;2024-03-22T05:51:33;10.90;99.90
35970;DHT22;22448;51.298;6.430;2024-03-22T05:53:59;10.90;99.90
35970;DHT22;22448;51.298;6.430;2024-03-22T05:56:26;10.90;99.90
35970;DHT22;22448;51.298;6.430;2024-03-22T05:58:52;11.00;99.90
35970;DHT22;22448;51.298;6.430;2024-03-22T06:01:19;11.00;99.90
35970;DHT22;22448;51.298;6.430;2024-03-22T06:03:45;11.00;99.90
35970;DHT22;22448;51.298;6.430;2024-03-22T06:06:11;11.10;99.90
35970;DHT22;22448;51.298;6.430;2024-03-22T06:08:38;11.10;99.90
35970;DHT22;22448;51.298;6.430;2024-03-22T06:11:07;11.10;99.90
35970;DHT22;22448;51.298;6.430;2024-03-22T06:13:33;11.20;99.90
35970;DHT22;22448;51.298;6.430;2024-03-22T06:16:00;11.20;99.90
35970;DHT22;22448;51.298;6.430;2024-03-22T06:18:27;11.20;99.90
35970;DHT22;22448;51.298;6.430;2024-03-22T06:20:53;11.30;99.90
35970;DHT22;22448;51.298;6.430;2024-03-22T06:23:24;11.30;99.90
35970;DHT22;22448;51.298;6.430;2024-03-22T06:25:55;11.30;99.90
35970;DHT22;22448;51.298;6.430;2024-03-22T06:28:22;11.40;99.90
35970;DHT22;22448;51.298;6.430;2024-03-22T06:30:49;11.50;99.90
35970;DHT22;22448;51.298;6.430;2024-03-22T06:33:15;11.50;99.90
35970;DHT22;22448;51.298;6.430;2024-03-22T06:35:41;11.50;99.90
35970;DHT22;22448;51.298;6.430;2024-03-22T06:38:08;11.60;99.90
35970;DHT22;22448;51.298;6.430;2024-03-22T06:40:34;11.60;99.90
35970;DHT22;22448;51.298;6.430;2024-03-22T06:43:01;11.60;99.90
35970;DHT22;22448;51.298;6.430;2024-03-22T06:45:27;11.70;99.90
35970;DHT22;22448;51.298;6.430;2024-03-22T06:47:53;11.70;99.90
35970;DHT22;22448;51.298;6.430;2024-03-22T06:50:19;11.80;99.90
35970;DHT22;22448;51.298;6.430;2024-03-22T06:52:54;11.90;99.90
35970;DHT22;22448;51.298;6.430;2024-03-22T06:55:20;12.00;99.90
35970;DHT22;22448;51.298;6.430;2024-03-22T06:57:48;12.10;99.90
35970;DHT22;22448;51.298;6.430;2024-03-22T07:00:15;12.30;99.90
35970;DHT22;22448;51.298;6.430;2024-03-22T07:02:41;12.60;99.90
35970;DHT22;22448;51.298;6.430;2024-03-22T07:05:08;12.70;99.90
35970;DHT22;22448;51.298;6.430;2024-03-22T07:07:35;12.70;99.90
35970;DHT22;22448;51.298;6.430;2024-03-22T07:10:03;12.80;99.90
35970;DHT22;22448;51.298;6.430;2024-03-22T07:12:29;12.80;99.90
35970;DHT22;22448;51.298;6.430;2024-03-22T07:14:55;12.90;99.90
35970;DHT22;22448;51.298;6.430;2024-03-22T07:17:22;13.00;99.90
35970;DHT22;22448;51.298;6.430;2024-03-22T07:19:51;13.20;99.90
35970;DHT22;22448;51.298;6.430;2024-03-22T07:22:18;13.30;99.90
35970;DHT22;22448;51.298;6.430;2024-03-22T07:24:44;13.40;99.90
35970;DHT22;22448;51.298;6.430;2024-03-22T07:27:11;13.40;99.90
35970;DHT22;22448;51.298;6.430;2024-03-22T07:29:37;13.30;99.90
35970;DHT22;22448;51.298;6.430;2024-03-22T07:32:04;13.20;99.90
35970;DHT22;22448;51.298;6.430;2024-03-22T07:34:30;13.20;99.90
35970;DHT22;22448;51.298;6.430;2024-03-22T07:36:57;13.10;99.90
35970;DHT22;22448;51.298;6.430;2024-03-22T07:39:23;13.10;99.90
35970;DHT22;22448;51.298;6.430;2024-03-22T07:41:50;13.00;99.90
35970;DHT22;22448;51.298;6.430;2024-03-22T07:44:16;12.90;99.90
35970;DHT22;22448;51.298;6.430;2024-03-22T07:46:46;12.90;99.90
35970;DHT22;22448;51.298;6.430;2024-03-22T07:49:12;13.00;99.90
35970;DHT22;22448;51.298;6.430;2024-03-22T07:51:39;13.00;99.90
35970;DHT22;22448;51.298;6.430;2024-03-22T07:54:05;13.10;99.90
35970;DHT22;22448;51.298;6.430;2024-03-22T07:56:31;13.20;99.90
35970;DHT22;22448;51.298;6.430;2024-03-22T07:58:57;13.30;99.90
35970;DHT22;22448;51.298;6.430;2024-03-22T08:01:24;13.30;99.90
35970;DHT22;22448;51.298;6.430;2024-03-22T08:03:51;13.30;99.90
35970;DHT22;22448;51.298;6.430;2024-03-22T08:06:17;13.20;99.90
35970;DHT22;22448;51.298;6.430;2024-03-22T08:08:44;13.30;99.90
35970;DHT22;22448;51.298;6.430;2024-03-22T08:11:10;13.30;99.90
35970;DHT22;22448;51.298;6.430;2024-03-22T08:13:36;13.30;99.90
35970;DHT22;22448;51.298;6.430;2024-03-22T08:16:03;13.30;99.90
35970;DHT22;22448;51.298;6.430;2024-03-22T08:18:29;13.20;99.90
35970;DHT22;22448;51.298;6.430;2024-03-22T08:20:55;13.20;99.90
35970;DHT22;22448;51.298;6.430;2024-03-22T08:23:22;13.30;99.90
35970;DHT22;22448;51.298;6.430;2024-03-22T08:25:49;13.40;99.90
35970;DHT22;22448;51.298;6.430;2024-03-22T08:28:15;13.50;99.90
35970;DHT22;22448;51.298;6.430;2024-03-22T08:30:42;13.70;99.90
35970;DHT22;22448;51.298;6.430;2024-03-22T08:33:09;13.90;99.90
35970;DHT22;22448;51.298;6.430;2024-03-22T08:35:35;14.00;99.90
35970;DHT22;22448;51.298;6.430;2024-03-22T08:38:02;14.10;99.90
35970;DHT22;22448;51.298;6.430;2024-03-22T08:40:28;14.10;99.90
35970;DHT22;22448;51.298;6.430;2024-03-22T08:42:54;14.40;99.90
35970;DHT22;22448;51.298;6.430;2024-03-22T08:45:20;14.70;99.90
35970;DHT22;22448;51.298;6.430;2024-03-22T08:47:47;15.00;99.90
35970;DHT22;22448;51.298;6.430;2024-03-22T08:50:13;15.20;99.90
35970;DHT22;22448;51.298;6.430;2024-03-22T08:52:39;15.10;99.90
35970;DHT22;22448;51.298;6.430;2024-03-22T08:55:05;14.90;99.90
35970;DHT22;22448;51.298;6.430;2024-03-22T08:57:33;14.70;99.90
35970;DHT22;22448;51.298;6.430;2024-03-22T08:59:59;14.50;99.90
35970;DHT22;22448;51.298;6.430;2024-03-22T09:02:25;14.70;99.90
35970;DHT22;22448;51.298;6.430;2024-03-22T09:04:52;15.20;99.90
35970;DHT22;22448;51.298;6.430;2024-03-22T09:07:20;15.80;99.90
35970;DHT22;22448;51.298;6.430;2024-03-22T09:09:46;16.40;99.90
35970;DHT22;22448;51.298;6.430;2024-03-22T09:12:12;16.60;99.90
35970;DHT22;22448;51.298;6.430;2024-03-22T09:14:38;16.60;99.90
35970;DHT22;22448;51.298;6.430;2024-03-22T09:17:04;16.40;99.90
35970;DHT22;22448;51.298;6.430;2024-03-22T09:19:30;16.20;99.90
35970;DHT22;22448;51.298;6.430;2024-03-22T09:21:57;16.00;99.90
35970;DHT22;22448;51.298;6.430;2024-03-22T09:24:23;15.90;99.90
35970;DHT22;22448;51.298;6.430;2024-03-22T09:26:50;15.80;99.90
35970;DHT22;22448;51.298;6.430;2024-03-22T09:29:16;15.70;99.90
35970;DHT22;22448;51.298;6.430;2024-03-22T09:31:42;15.60;99.90
35970;DHT22;22448;51.298;6.430;2024-03-22T09:34:08;15.60;99.90
35970;DHT22;22448;51.298;6.430;2024-03-22T09:36:34;15.50;99.90
35970;DHT22;22448;51.298;6.430;2024-03-22T09:39:04;15.50;99.90
35970;DHT22;22448;51.298;6.430;2024-03-22T09:41:32;15.50;99.90
35970;DHT22;22448;51.298;6.430;2024-03-22T09:43:59;15.40;99.90
35970;DHT22;22448;51.298;6.430;2024-03-22T09:46:27;15.30;99.90
35970;DHT22;22448;51.298;6.430;2024-03-22T09:48:54;15.20;99.90
35970;DHT22;22448;51.298;6.430;2024-03-22T09:51:21;15.20;99.90
35970;DHT22;22448;51.298;6.430;2024-03-22T09:53:49;15.20;99.90
35970;DHT22;22448;51.298;6.430;2024-03-22T09:56:17;15.40;99.90
35970;DHT22;22448;51.298;6.430;2024-03-22T09:58:46;15.20;99.90
35970;DHT22;22448;51.298;6.430;2024-03-22T10:01:13;15.20;99.90
35970;DHT22;22448;51.298;6.430;2024-03-22T10:03:39;15.20;99.90
35970;DHT22;22448;51.298;6.430;2024-03-22T10:06:06;15.20;99.90
35970;DHT22;22448;51.298;6.430;2024-03-22T10:08:32;15.20;99.90
35970;DHT22;22448;51.298;6.430;2024-03-22T10:11:01;15.20;99.90
35970;DHT22;22448;51.298;6.430;2024-03-22T10:13:27;15.20;99.90
35970;DHT22;22448;51.298;6.430;2024-03-22T10:15:56;15.10;99.90
35970;DHT22;22448;51.298;6.430;2024-03-22T10:18:22;15.10;99.90
35970;DHT22;22448;51.298;6.430;2024-03-22T10:21:02;15.00;99.90
35970;DHT22;22448;51.298;6.430;2024-03-22T10:23:32;15.10;99.90
35970;DHT22;22448;51.298;6.430;2024-03-22T10:25:58;15.00;99.90
35970;DHT22;22448;51.298;6.430;2024-03-22T10:28:26;15.00;99.90
35970;DHT22;22448;51.298;6.430;2024-03-22T10:30:52;15.10;99.90
35970;DHT22;22448;51.298;6.430;2024-03-22T10:33:20;15.10;99.90
35970;DHT22;22448;51.298;6.430;2024-03-22T10:35:52;15.20;99.90
35970;DHT22;22448;51.298;6.430;2024-03-22T10:38:22;15.30;99.90
35970;DHT22;22448;51.298;6.430;2024-03-22T10:40:48;15.40;99.90
35970;DHT22;22448;51.298;6.430;2024-03-22T10:43:16;15.40;99.90
35970;DHT22;22448;51.298;6.430;2024-03-22T10:45:42;15.50;99.90
35970;DHT22;22448;51.298;6.430;2024-03-22T10:48:09;15.60;99.90
35970;DHT22;22448;51.298;6.430;2024-03-22T10:50:40;15.60;99.90
35970;DHT22;22448;51.298;6.430;2024-03-22T10:53:11;15.60;99.90
35970;DHT22;22448;51.298;6.430;2024-03-22T10:55:42;15.60;99.90
35970;DHT22;22448;51.298;6.430;2024-03-22T10:58:21;15.80;99.90
35970;DHT22;22448;51.298;6.430;2024-03-22T11:00:51;15.90;99.90
35970;DHT22;22448;51.298;6.430;2024-03-22T11:03:20;16.10;99.90
35970;DHT22;22448;51.298;6.430;2024-03-22T11:05:54;16.10;99.90
35970;DHT22;22448;51.298;6.430;2024-03-22T11:08:24;16.00;99.90
35970;DHT22;22448;51.298;6.430;2024-03-22T11:10:51;16.00;99.90
35970;DHT22;22448;51.298;6.430;2024-03-22T11:13:18;15.90;99.90
35970;DHT22;22448;51.298;6.430;2024-03-22T11:15:47;15.70;99.90
35970;DHT22;22448;51.298;6.430;2024-03-22T11:18:14;15.50;99.90
35970;DHT22;22448;51.298;6.430;2024-03-22T11:20:40;15.30;99.90
35970;DHT22;22448;51.298;6.430;2024-03-22T11:23:06;15.30;99.90
35970;DHT22;22448;51.298;6.430;2024-03-22T11:25:33;15.20;99.90
35970;DHT22;22448;51.298;6.430;2024-03-22T11:27:59;15.10;99.90
35970;DHT22;22448;51.298;6.430;2024-03-22T11:30:29;15.00;99.90
35970;DHT22;22448;51.298;6.430;2024-03-22T11:32:55;14.90;99.90
35970;DHT22;22448;51.298;6.430;2024-03-22T11:35:21;14.80;99.90
35970;DHT22;22448;51.298;6.430;2024-03-22T11:37:50;14.70;99.90
35970;DHT22;22448;51.298;6.430;2024-03-22T11:40:17;14.70;99.90
35970;DHT22;22448;51.298;6.430;2024-03-22T11:42:46;14.60;99.90
35970;DHT22;22448;51.298;6.430;2024-03-22T11:45:16;14.60;99.90
35970;DHT22;22448;51.298;6.430;2024-03-22T11:47:47;14.70;99.90
35970;DHT22;22448;51.298;6.430;2024-03-22T11:50:14;14.70;99.90
35970;DHT22;22448;51.298;6.430;2024-03-22T11:52:44;14.70;99.90
35970;DHT22;22448;51.298;6.430;2024-03-22T11:55:13;14.80;99.90
35970;DHT22;22448;51.298;6.430;2024-03-22T11:57:39;14.70;99.90
35970;DHT22;22448;51.298;6.430;2024-03-22T12:00:06;14.60;99.90
35970;DHT22;22448;51.298;6.430;2024-03-22T12:02:38;14.60;99.90
35970;DHT22;22448;51.298;6.430;2024-03-22T12:05:07;14.50;99.90
35970;DHT22;22448;51.298;6.430;2024-03-22T12:07:34;14.30;99.90
35970;DHT22;22448;51.298;6.430;2024-03-22T12:10:00;14.20;99.90
35970;DHT22;22448;51.298;6.430;2024-03-22T12:12:26;14.10;99.90
35970;DHT22;22448;51.298;6.430;2024-03-22T12:14:52;14.00;99.90
35970;DHT22;22448;51.298;6.430;2024-03-22T12:17:19;14.00;99.90
35970;DHT22;22448;51.298;6.430;2024-03-22T12:19:45;14.00;99.90
35970;DHT22;22448;51.298;6.430;2024-03-22T12:22:11;13.90;99.90
35970;DHT22;22448;51.298;6.430;2024-03-22T12:24:37;13.90;99.90
35970;DHT22;22448;51.298;6.430;2024-03-22T12:27:03;13.90;99.90
35970;DHT22;22448;51.298;6.430;2024-03-22T12:29:32;13.90;99.90
35970;DHT22;22448;51.298;6.430;2024-03-22T12:31:59;14.00;99.90
35970;DHT22;22448;51.298;6.430;2024-03-22T12:34:28;14.00;99.90
35970;DHT22;22448;51.298;6.430;2024-03-22T12:36:55;13.90;99.90
35970;DHT22;22448;51.298;6.430;2024-03-22T12:39:21;13.90;99.90
35970;DHT22;22448;51.298;6.430;2024-03-22T12:41:48;14.00;99.90
35970;DHT22;22448;51.298;6.430;2024-03-22T12:44:14;14.10;99.90
35970;DHT22;22448;51.298;6.430;2024-03-22T12:46:41;14.00;99.90
35970;DHT22;22448;51.298;6.430;2024-03-22T12:49:11;14.00;99.90
35970;DHT22;22448;51.298;6.430;2024-03-22T12:51:37;14.00;99.90
35970;DHT22;22448;51.298;6.430;2024-03-22T12:54:04;14.00;99.90
35970;DHT22;22448;51.298;6.430;2024-03-22T12:56:31;13.90;99.90
35970;DHT22;22448;51.298;6.430;2024-03-22T12:58:59;13.80;99.90
35970;DHT22;22448;51.298;6.430;2024-03-22T13:01:24;13.70;99.90
35970;DHT22;22448;51.298;6.430;2024-03-22T13:03:51;13.50;99.90
35970;DHT22;22448;51.298;6.430;2024-03-22T13:06:17;13.50;99.90
35970;DHT22;22448;51.298;6.430;2024-03-22T13:08:43;13.40;99.90
35970;DHT22;22448;51.298;6.430;2024-03-22T13:11:09;13.40;99.90
35970;DHT22;22448;51.298;6.430;2024-03-22T13:13:36;13.40;99.90
35970;DHT22;22448;51.298;6.430;2024-03-22T13:16:02;13.30;99.90
35970;DHT22;22448;51.298;6.430;2024-03-22T13:18:29;13.20;99.90
35970;DHT22;22448;51.298;6.430;2024-03-22T13:20:56;13.10;99.90
35970;DHT22;22448;51.298;6.430;2024-03-22T13:23:22;13.10;99.90
35970;DHT22;22448;51.298;6.430;2024-03-22T13:25:49;13.10;99.90
35970;DHT22;22448;51.298;6.430;2024-03-22T13:28:15;13.00;99.90
35970;DHT22;22448;51.298;6.430;2024-03-22T13:30:46;13.00;99.90
35970;DHT22;22448;51.298;6.430;2024-03-22T13:33:13;12.90;99.90
35970;DHT22;22448;51.298;6.430;2024-03-22T13:35:39;12.90;99.90
35970;DHT22;22448;51.298;6.430;2024-03-22T13:38:07;12.90;99.90
35970;DHT22;22448;51.298;6.430;2024-03-22T13:40:39;12.90;99.90
35970;DHT22;22448;51.298;6.430;2024-03-22T13:43:06;12.90;99.90
35970;DHT22;22448;51.298;6.430;2024-03-22T13:45:39;12.90;99.90
35970;DHT22;22448;51.298;6.430;2024-03-22T13:48:11;13.00;99.90
35970;DHT22;22448;51.298;6.430;2024-03-22T13:50:40;12.90;99.90
35970;DHT22;22448;51.298;6.430;2024-03-22T13:53:07;12.90;99.90
35970;DHT22;22448;51.298;6.430;2024-03-22T13:55:35;12.90;99.90
35970;DHT22;22448;51.298;6.430;2024-03-22T13:58:01;12.90;99.90
35970;DHT22;22448;51.298;6.430;2024-03-22T14:00:27;12.80;99.90
35970;DHT22;22448;51.298;6.430;2024-03-22T14:02:53;12.80;99.90
35970;DHT22;22448;51.298;6.430;2024-03-22T14:05:21;12.70;99.90
35970;DHT22;22448;51.298;6.430;2024-03-22T14:07:50;12.60;99.90
35970;DHT22;22448;51.298;6.430;2024-03-22T14:10:17;12.50;99.90
35970;DHT22;22448;51.298;6.430;2024-03-22T14:12:45;12.50;99.90
35970;DHT22;22448;51.298;6.430;2024-03-22T14:15:11;12.40;99.90
35970;DHT22;22448;51.298;6.430;2024-03-22T14:17:37;12.30;99.90
35970;DHT22;22448;51.298;6.430;2024-03-22T14:20:04;12.30;99.90
35970;DHT22;22448;51.298;6.430;2024-03-22T14:22:43;12.30;99.90
35970;DHT22;22448;51.298;6.430;2024-03-22T14:25:09;12.20;99.90
35970;DHT22;22448;51.298;6.430;2024-03-22T14:27:36;12.20;99.90
35970;DHT22;22448;51.298;6.430;2024-03-22T14:30:04;12.20;99.90
35970;DHT22;22448;51.298;6.430;2024-03-22T14:32:33;12.20;99.90
35970;DHT22;22448;51.298;6.430;2024-03-22T14:35:00;12.10;99.90
35970;DHT22;22448;51.298;6.430;2024-03-22T14:37:26;12.10;99.90
35970;DHT22;22448;51.298;6.430;2024-03-22T14:39:53;12.10;99.90
35970;DHT22;22448;51.298;6.430;2024-03-22T14:42:19;12.10;99.90
35970;DHT22;22448;51.298;6.430;2024-03-22T14:44:45;12.10;99.90
35970;DHT22;22448;51.298;6.430;2024-03-22T14:47:11;12.10;99.90
35970;DHT22;22448;51.298;6.430;2024-03-22T14:49:37;12.00;99.90
35970;DHT22;22448;51.298;6.430;2024-03-22T14:52:03;12.00;99.90
35970;DHT22;22448;51.298;6.430;2024-03-22T14:54:30;12.00;99.90
35970;DHT22;22448;51.298;6.430;2024-03-22T14:56:56;12.00;99.90
35970;DHT22;22448;51.298;6.430;2024-03-22T14:59:22;12.00;99.90
35970;DHT22;22448;51.298;6.430;2024-03-22T15:01:49;11.90;99.90
35970;DHT22;22448;51.298;6.430;2024-03-22T15:04:14;11.90;99.90
35970;DHT22;22448;51.298;6.430;2024-03-22T15:06:41;12.00;99.90
35970;DHT22;22448;51.298;6.430;2024-03-22T15:09:06;11.90;99.90
35970;DHT22;22448;51.298;6.430;2024-03-22T15:11:37;11.80;99.90
35970;DHT22;22448;51.298;6.430;2024-03-22T15:14:03;11.80;99.90
35970;DHT22;22448;51.298;6.430;2024-03-22T15:16:30;11.80;99.90
35970;DHT22;22448;51.298;6.430;2024-03-22T15:18:56;11.80;99.90
35970;DHT22;22448;51.298;6.430;2024-03-22T15:21:23;11.80;99.90
35970;DHT22;22448;51.298;6.430;2024-03-22T15:23:49;11.80;99.90
35970;DHT22;22448;51.298;6.430;2024-03-22T15:26:14;11.70;99.90
35970;DHT22;22448;51.298;6.430;2024-03-22T15:28:41;11.70;99.90